sensor_id;sensor_type;location;lat;lon;timestamp;P1;durP1;ratioP1;P2;durP2;ratioP2
15297;SDS011;7750;48.796;9.026;2023-05-07T00:01:50;4.57;;;3.47;;
15297;SDS011;7750;48.796;9.026;2023-05-07T00:06:52;4.60;;;3.60;;
15297;SDS011;7750;48.796;9.026;2023-05-07T00:11:52;6.80;;;3.30;;
15297;SDS011;7750;48.796;9.026;2023-05-07T00:16:53;5.10;;;3.70;;
15297;SDS011;7750;48.796;9.026;2023-05-07T00:21:54;4.50;;;3.00;;
15297;SDS011;7750;48.796;9.026;2023-05-07T00:26:55;4.13;;;3.20;;
15297;SDS011;7750;48.796;9.026;2023-05-07T00:31:57;5.77;;;3.43;;
15297;SDS011;7750;48.796;9.026;2023-05-07T00:36:58;3.73;;;3.00;;
15297;SDS011;7750;48.796;9.026;2023-05-07T00:41:59;5.10;;;3.60;;
15297;SDS011;7750;48.796;9.026;2023-05-07T00:47:01;6.70;;;3.10;;
15297;SDS011;7750;48.796;9.026;2023-05-07T00:52:03;5.80;;;3.77;;
15297;SDS011;7750;48.796;9.026;2023-05-07T00:57:05;4.93;;;3.30;;
15297;SDS011;7750;48.796;9.026;2023-05-07T01:02:06;4.73;;;3.20;;
15297;SDS011;7750;48.796;9.026;2023-05-07T01:07:07;4.40;;;3.13;;
15297;SDS011;7750;48.796;9.026;2023-05-07T01:12:08;3.80;;;3.17;;
15297;SDS011;7750;48.796;9.026;2023-05-07T01:17:10;5.80;;;3.27;;
15297;SDS011;7750;48.796;9.026;2023-05-07T01:22:11;4.40;;;3.20;;
15297;SDS011;7750;48.796;9.026;2023-05-07T01:27:12;3.90;;;3.10;;
15297;SDS011;7750;48.796;9.026;2023-05-07T01:32:13;7.30;;;3.37;;
15297;SDS011;7750;48.796;9.026;2023-05-07T01:37:15;3.37;;;2.60;;
15297;SDS011;7750;48.796;9.026;2023-05-07T01:42:16;7.37;;;3.77;;
15297;SDS011;7750;48.796;9.026;2023-05-07T01:47:17;4.70;;;3.43;;
15297;SDS011;7750;48.796;9.026;2023-05-07T01:52:18;4.40;;;3.17;;
15297;SDS011;7750;48.796;9.026;2023-05-07T01:57:19;4.60;;;2.53;;
15297;SDS011;7750;48.796;9.026;2023-05-07T02:02:20;4.87;;;3.03;;
15297;SDS011;7750;48.796;9.026;2023-05-07T02:07:21;4.60;;;3.03;;
15297;SDS011;7750;48.796;9.026;2023-05-07T02:12:22;7.30;;;2.90;;
15297;SDS011;7750;48.796;9.026;2023-05-07T02:17:23;3.33;;;2.87;;
15297;SDS011;7750;48.796;9.026;2023-05-07T02:22:23;4.30;;;3.17;;
15297;SDS011;7750;48.796;9.026;2023-05-07T02:27:25;5.93;;;3.03;;
15297;SDS011;7750;48.796;9.026;2023-05-07T02:32:25;4.60;;;3.23;;
15297;SDS011;7750;48.796;9.026;2023-05-07T02:37:26;4.47;;;2.60;;
15297;SDS011;7750;48.796;9.026;2023-05-07T02:42:27;4.10;;;2.93;;
15297;SDS011;7750;48.796;9.026;2023-05-07T02:47:27;4.60;;;3.57;;
15297;SDS011;7750;48.796;9.026;2023-05-07T02:52:28;3.60;;;2.87;;
15297;SDS011;7750;48.796;9.026;2023-05-07T02:57:29;4.03;;;3.20;;
15297;SDS011;7750;48.796;9.026;2023-05-07T03:02:29;4.00;;;3.03;;
15297;SDS011;7750;48.796;9.026;2023-05-07T03:07:30;3.90;;;2.73;;
15297;SDS011;7750;48.796;9.026;2023-05-07T03:12:31;3.43;;;2.73;;
15297;SDS011;7750;48.796;9.026;2023-05-07T03:17:31;5.10;;;3.10;;
15297;SDS011;7750;48.796;9.026;2023-05-07T03:22:32;4.33;;;3.20;;
15297;SDS011;7750;48.796;9.026;2023-05-07T03:27:32;4.60;;;3.40;;
15297;SDS011;7750;48.796;9.026;2023-05-07T03:32:33;6.13;;;3.10;;
15297;SDS011;7750;48.796;9.026;2023-05-07T03:37:35;3.03;;;2.73;;
15297;SDS011;7750;48.796;9.026;2023-05-07T03:42:35;4.90;;;2.90;;
15297;SDS011;7750;48.796;9.026;2023-05-07T03:47:36;4.07;;;3.50;;
15297;SDS011;7750;48.796;9.026;2023-05-07T03:52:37;4.50;;;3.10;;
15297;SDS011;7750;48.796;9.026;2023-05-07T03:57:37;7.77;;;2.77;;
15297;SDS011;7750;48.796;9.026;2023-05-07T04:02:38;5.10;;;2.93;;
15297;SDS011;7750;48.796;9.026;2023-05-07T04:07:39;4.10;;;2.90;;
15297;SDS011;7750;48.796;9.026;2023-05-07T04:12:39;4.87;;;3.27;;
15297;SDS011;7750;48.796;9.026;2023-05-07T04:17:40;4.23;;;3.23;;
15297;SDS011;7750;48.796;9.026;2023-05-07T04:22:41;4.03;;;3.23;;
15297;SDS011;7750;48.796;9.026;2023-05-07T04:27:42;3.27;;;2.80;;
15297;SDS011;7750;48.796;9.026;2023-05-07T04:32:42;4.37;;;3.37;;
15297;SDS011;7750;48.796;9.026;2023-05-07T04:37:44;2.97;;;2.67;;
15297;SDS011;7750;48.796;9.026;2023-05-07T04:42:45;3.20;;;2.90;;
15297;SDS011;7750;48.796;9.026;2023-05-07T04:47:45;3.90;;;2.80;;
15297;SDS011;7750;48.796;9.026;2023-05-07T04:52:46;3.30;;;3.00;;
15297;SDS011;7750;48.796;9.026;2023-05-07T04:57:46;4.90;;;3.70;;
15297;SDS011;7750;48.796;9.026;2023-05-07T05:02:47;5.47;;;3.47;;
15297;SDS011;7750;48.796;9.026;2023-05-07T05:07:48;3.60;;;2.90;;
15297;SDS011;7750;48.796;9.026;2023-05-07T05:12:48;3.43;;;2.77;;
15297;SDS011;7750;48.796;9.026;2023-05-07T05:17:49;4.17;;;2.70;;
15297;SDS011;7750;48.796;9.026;2023-05-07T05:22:50;3.70;;;2.90;;
15297;SDS011;7750;48.796;9.026;2023-05-07T05:27:51;3.27;;;2.63;;
15297;SDS011;7750;48.796;9.026;2023-05-07T05:33:07;4.33;;;3.20;;
15297;SDS011;7750;48.796;9.026;2023-05-07T05:38:07;3.67;;;3.10;;
15297;SDS011;7750;48.796;9.026;2023-05-07T05:43:08;3.60;;;3.10;;
15297;SDS011;7750;48.796;9.026;2023-05-07T05:48:09;3.13;;;2.83;;
15297;SDS011;7750;48.796;9.026;2023-05-07T05:53:10;5.43;;;3.57;;
15297;SDS011;7750;48.796;9.026;2023-05-07T05:58:10;4.57;;;3.40;;
15297;SDS011;7750;48.796;9.026;2023-05-07T06:03:11;3.33;;;2.70;;
15297;SDS011;7750;48.796;9.026;2023-05-07T06:08:11;3.43;;;2.70;;
15297;SDS011;7750;48.796;9.026;2023-05-07T06:13:13;5.37;;;2.83;;
15297;SDS011;7750;48.796;9.026;2023-05-07T06:18:13;5.63;;;3.20;;
15297;SDS011;7750;48.796;9.026;2023-05-07T06:23:14;4.00;;;3.30;;
15297;SDS011;7750;48.796;9.026;2023-05-07T06:28:14;4.27;;;3.33;;
15297;SDS011;7750;48.796;9.026;2023-05-07T06:33:15;3.10;;;2.73;;
15297;SDS011;7750;48.796;9.026;2023-05-07T06:38:16;4.10;;;2.83;;
15297;SDS011;7750;48.796;9.026;2023-05-07T06:43:17;3.50;;;3.03;;
15297;SDS011;7750;48.796;9.026;2023-05-07T06:48:17;4.70;;;3.70;;
15297;SDS011;7750;48.796;9.026;2023-05-07T06:53:18;4.30;;;3.20;;
15297;SDS011;7750;48.796;9.026;2023-05-07T06:58:19;6.97;;;3.17;;
15297;SDS011;7750;48.796;9.026;2023-05-07T07:03:20;5.20;;;3.03;;
15297;SDS011;7750;48.796;9.026;2023-05-07T07:08:21;3.40;;;2.90;;
15297;SDS011;7750;48.796;9.026;2023-05-07T07:13:22;7.63;;;3.10;;
15297;SDS011;7750;48.796;9.026;2023-05-07T07:18:23;9.63;;;3.30;;
15297;SDS011;7750;48.796;9.026;2023-05-07T07:23:23;5.40;;;3.37;;
15297;SDS011;7750;48.796;9.026;2023-05-07T07:28:25;4.53;;;3.43;;
15297;SDS011;7750;48.796;9.026;2023-05-07T07:33:25;3.00;;;2.70;;
15297;SDS011;7750;48.796;9.026;2023-05-07T07:38:26;4.73;;;3.23;;
15297;SDS011;7750;48.796;9.026;2023-05-07T07:43:30;3.03;;;2.60;;
15297;SDS011;7750;48.796;9.026;2023-05-07T07:48:30;3.33;;;2.40;;
15297;SDS011;7750;48.796;9.026;2023-05-07T07:53:31;4.63;;;4.10;;
15297;SDS011;7750;48.796;9.026;2023-05-07T07:58:32;4.90;;;3.17;;
15297;SDS011;7750;48.796;9.026;2023-05-07T08:03:32;4.93;;;3.80;;
15297;SDS011;7750;48.796;9.026;2023-05-07T08:08:33;3.37;;;2.87;;
15297;SDS011;7750;48.796;9.026;2023-05-07T08:13:34;5.83;;;2.63;;
15297;SDS011;7750;48.796;9.026;2023-05-07T08:18:35;2.90;;;2.33;;
15297;SDS011;7750;48.796;9.026;2023-05-07T08:23:35;5.70;;;2.80;;
15297;SDS011;7750;48.796;9.026;2023-05-07T08:28:36;3.43;;;2.60;;
15297;SDS011;7750;48.796;9.026;2023-05-07T08:33:37;3.77;;;2.80;;
15297;SDS011;7750;48.796;9.026;2023-05-07T08:38:38;5.90;;;2.80;;
15297;SDS011;7750;48.796;9.026;2023-05-07T08:43:41;3.10;;;2.40;;
15297;SDS011;7750;48.796;9.026;2023-05-07T08:48:41;3.40;;;2.30;;
15297;SDS011;7750;48.796;9.026;2023-05-07T08:53:42;3.30;;;2.70;;
15297;SDS011;7750;48.796;9.026;2023-05-07T08:58:44;2.60;;;2.40;;
15297;SDS011;7750;48.796;9.026;2023-05-07T09:03:45;5.53;;;2.80;;
15297;SDS011;7750;48.796;9.026;2023-05-07T09:08:50;3.60;;;2.80;;
15297;SDS011;7750;48.796;9.026;2023-05-07T09:13:55;3.00;;;2.40;;
15297;SDS011;7750;48.796;9.026;2023-05-07T09:18:58;6.83;;;3.47;;
15297;SDS011;7750;48.796;9.026;2023-05-07T09:24:00;5.57;;;2.70;;
15297;SDS011;7750;48.796;9.026;2023-05-07T09:29:01;3.37;;;2.60;;
15297;SDS011;7750;48.796;9.026;2023-05-07T09:34:01;4.50;;;2.50;;
15297;SDS011;7750;48.796;9.026;2023-05-07T09:39:04;3.17;;;2.70;;
15297;SDS011;7750;48.796;9.026;2023-05-07T09:44:05;9.27;;;3.20;;
15297;SDS011;7750;48.796;9.026;2023-05-07T09:49:06;5.90;;;3.30;;
15297;SDS011;7750;48.796;9.026;2023-05-07T09:54:09;6.57;;;3.07;;
15297;SDS011;7750;48.796;9.026;2023-05-07T09:59:12;3.60;;;2.87;;
15297;SDS011;7750;48.796;9.026;2023-05-07T10:04:14;4.03;;;2.90;;
15297;SDS011;7750;48.796;9.026;2023-05-07T10:09:15;4.23;;;3.10;;
15297;SDS011;7750;48.796;9.026;2023-05-07T10:14:19;5.13;;;2.80;;
15297;SDS011;7750;48.796;9.026;2023-05-07T10:19:21;8.97;;;2.83;;
15297;SDS011;7750;48.796;9.026;2023-05-07T10:24:26;4.13;;;2.77;;
15297;SDS011;7750;48.796;9.026;2023-05-07T10:35:14;3.90;;;2.27;;
15297;SDS011;7750;48.796;9.026;2023-05-07T10:40:17;3.57;;;2.33;;
15297;SDS011;7750;48.796;9.026;2023-05-07T10:45:20;3.57;;;3.00;;
15297;SDS011;7750;48.796;9.026;2023-05-07T10:50:22;5.20;;;2.97;;
15297;SDS011;7750;48.796;9.026;2023-05-07T10:55:23;3.10;;;2.47;;
15297;SDS011;7750;48.796;9.026;2023-05-07T11:05:31;3.43;;;2.90;;
15297;SDS011;7750;48.796;9.026;2023-05-07T11:15:53;5.77;;;3.27;;
15297;SDS011;7750;48.796;9.026;2023-05-07T11:20:55;3.10;;;2.50;;
15297;SDS011;7750;48.796;9.026;2023-05-07T11:25:58;5.37;;;3.57;;
15297;SDS011;7750;48.796;9.026;2023-05-07T11:31:03;7.20;;;5.10;;
15297;SDS011;7750;48.796;9.026;2023-05-07T11:36:04;4.20;;;3.20;;
15297;SDS011;7750;48.796;9.026;2023-05-07T11:41:07;4.53;;;3.50;;
15297;SDS011;7750;48.796;9.026;2023-05-07T11:46:09;7.33;;;3.20;;
15297;SDS011;7750;48.796;9.026;2023-05-07T11:51:10;4.23;;;3.40;;
15297;SDS011;7750;48.796;9.026;2023-05-07T11:56:14;4.57;;;3.33;;
15297;SDS011;7750;48.796;9.026;2023-05-07T12:01:16;7.07;;;3.17;;
15297;SDS011;7750;48.796;9.026;2023-05-07T12:06:17;6.07;;;3.90;;
15297;SDS011;7750;48.796;9.026;2023-05-07T12:11:24;7.90;;;3.50;;
15297;SDS011;7750;48.796;9.026;2023-05-07T12:16:26;4.20;;;3.20;;
15297;SDS011;7750;48.796;9.026;2023-05-07T12:21:27;7.93;;;2.97;;
15297;SDS011;7750;48.796;9.026;2023-05-07T12:26:28;7.40;;;3.00;;
15297;SDS011;7750;48.796;9.026;2023-05-07T12:31:28;3.73;;;2.47;;
15297;SDS011;7750;48.796;9.026;2023-05-07T12:36:36;4.87;;;2.40;;
15297;SDS011;7750;48.796;9.026;2023-05-07T12:41:54;6.43;;;2.27;;
15297;SDS011;7750;48.796;9.026;2023-05-07T12:46:55;3.83;;;1.93;;
15297;SDS011;7750;48.796;9.026;2023-05-07T12:51:56;3.10;;;1.77;;
15297;SDS011;7750;48.796;9.026;2023-05-07T12:57:05;3.77;;;1.73;;
15297;SDS011;7750;48.796;9.026;2023-05-07T13:02:07;3.83;;;1.90;;
15297;SDS011;7750;48.796;9.026;2023-05-07T13:07:09;3.60;;;1.90;;
15297;SDS011;7750;48.796;9.026;2023-05-07T13:12:09;2.73;;;1.70;;
15297;SDS011;7750;48.796;9.026;2023-05-07T13:17:10;8.73;;;2.30;;
15297;SDS011;7750;48.796;9.026;2023-05-07T13:22:11;3.57;;;2.20;;
15297;SDS011;7750;48.796;9.026;2023-05-07T13:27:11;5.77;;;2.20;;
15297;SDS011;7750;48.796;9.026;2023-05-07T13:32:12;3.60;;;2.00;;
15297;SDS011;7750;48.796;9.026;2023-05-07T13:37:12;3.87;;;2.00;;
15297;SDS011;7750;48.796;9.026;2023-05-07T13:42:13;5.97;;;2.30;;
15297;SDS011;7750;48.796;9.026;2023-05-07T13:47:14;5.80;;;2.80;;
15297;SDS011;7750;48.796;9.026;2023-05-07T13:52:15;2.70;;;2.00;;
15297;SDS011;7750;48.796;9.026;2023-05-07T13:57:16;5.10;;;1.97;;
15297;SDS011;7750;48.796;9.026;2023-05-07T14:02:17;2.53;;;1.80;;
15297;SDS011;7750;48.796;9.026;2023-05-07T14:07:17;3.27;;;2.60;;
15297;SDS011;7750;48.796;9.026;2023-05-07T14:12:18;4.40;;;2.57;;
15297;SDS011;7750;48.796;9.026;2023-05-07T14:17:18;3.93;;;2.67;;
15297;SDS011;7750;48.796;9.026;2023-05-07T14:22:20;3.50;;;2.93;;
15297;SDS011;7750;48.796;9.026;2023-05-07T14:27:22;8.53;;;2.83;;
15297;SDS011;7750;48.796;9.026;2023-05-07T14:32:22;4.10;;;3.07;;
15297;SDS011;7750;48.796;9.026;2023-05-07T14:37:23;3.10;;;2.50;;
15297;SDS011;7750;48.796;9.026;2023-05-07T14:42:24;3.40;;;3.00;;
15297;SDS011;7750;48.796;9.026;2023-05-07T14:47:25;3.93;;;2.77;;
15297;SDS011;7750;48.796;9.026;2023-05-07T14:52:26;5.33;;;3.10;;
15297;SDS011;7750;48.796;9.026;2023-05-07T14:57:27;5.03;;;3.37;;
15297;SDS011;7750;48.796;9.026;2023-05-07T15:02:27;8.73;;;3.07;;
15297;SDS011;7750;48.796;9.026;2023-05-07T15:07:29;3.80;;;2.63;;
15297;SDS011;7750;48.796;9.026;2023-05-07T15:12:29;4.30;;;3.10;;
15297;SDS011;7750;48.796;9.026;2023-05-07T15:17:30;3.90;;;2.60;;
15297;SDS011;7750;48.796;9.026;2023-05-07T15:22:30;3.43;;;2.43;;
15297;SDS011;7750;48.796;9.026;2023-05-07T15:58:47;2.83;;;2.40;;
15297;SDS011;7750;48.796;9.026;2023-05-07T16:04:07;3.30;;;3.00;;
15297;SDS011;7750;48.796;9.026;2023-05-07T16:09:46;7.03;;;3.50;;
15297;SDS011;7750;48.796;9.026;2023-05-07T16:20:06;6.10;;;3.03;;
15297;SDS011;7750;48.796;9.026;2023-05-07T16:25:11;3.53;;;2.57;;
15297;SDS011;7750;48.796;9.026;2023-05-07T16:30:13;3.67;;;2.80;;
15297;SDS011;7750;48.796;9.026;2023-05-07T16:35:17;4.43;;;2.40;;
15297;SDS011;7750;48.796;9.026;2023-05-07T16:40:18;4.10;;;2.53;;
15297;SDS011;7750;48.796;9.026;2023-05-07T16:45:18;2.90;;;2.60;;
15297;SDS011;7750;48.796;9.026;2023-05-07T16:50:19;3.40;;;2.60;;
15297;SDS011;7750;48.796;9.026;2023-05-07T16:55:20;4.03;;;2.40;;
15297;SDS011;7750;48.796;9.026;2023-05-07T17:00:21;3.47;;;3.00;;
15297;SDS011;7750;48.796;9.026;2023-05-07T17:05:52;3.70;;;2.77;;
15297;SDS011;7750;48.796;9.026;2023-05-07T17:10:56;6.93;;;3.20;;
15297;SDS011;7750;48.796;9.026;2023-05-07T17:15:56;4.07;;;3.03;;
15297;SDS011;7750;48.796;9.026;2023-05-07T17:20:57;4.60;;;3.53;;
15297;SDS011;7750;48.796;9.026;2023-05-07T17:25:58;4.37;;;2.80;;
15297;SDS011;7750;48.796;9.026;2023-05-07T17:30:58;4.60;;;2.77;;
15297;SDS011;7750;48.796;9.026;2023-05-07T17:35:59;3.20;;;2.23;;
15297;SDS011;7750;48.796;9.026;2023-05-07T17:41:02;3.50;;;2.77;;
15297;SDS011;7750;48.796;9.026;2023-05-07T17:46:03;3.00;;;2.70;;
15297;SDS011;7750;48.796;9.026;2023-05-07T17:51:03;5.20;;;4.10;;
15297;SDS011;7750;48.796;9.026;2023-05-07T17:56:04;4.57;;;2.73;;
15297;SDS011;7750;48.796;9.026;2023-05-07T18:01:05;4.00;;;2.77;;
15297;SDS011;7750;48.796;9.026;2023-05-07T18:06:05;3.53;;;2.83;;
15297;SDS011;7750;48.796;9.026;2023-05-07T18:11:06;5.20;;;3.30;;
15297;SDS011;7750;48.796;9.026;2023-05-07T18:16:07;3.20;;;2.43;;
15297;SDS011;7750;48.796;9.026;2023-05-07T18:21:08;7.33;;;2.90;;
15297;SDS011;7750;48.796;9.026;2023-05-07T18:26:14;3.70;;;2.90;;
15297;SDS011;7750;48.796;9.026;2023-05-07T18:31:15;3.97;;;2.80;;
15297;SDS011;7750;48.796;9.026;2023-05-07T18:36:15;2.80;;;2.50;;
15297;SDS011;7750;48.796;9.026;2023-05-07T18:41:16;3.87;;;2.80;;
15297;SDS011;7750;48.796;9.026;2023-05-07T18:46:16;3.13;;;2.83;;
15297;SDS011;7750;48.796;9.026;2023-05-07T18:51:17;3.80;;;3.33;;
15297;SDS011;7750;48.796;9.026;2023-05-07T18:56:18;5.47;;;3.60;;
15297;SDS011;7750;48.796;9.026;2023-05-07T19:01:21;4.80;;;3.30;;
15297;SDS011;7750;48.796;9.026;2023-05-07T19:06:21;5.00;;;3.20;;
15297;SDS011;7750;48.796;9.026;2023-05-07T19:11:22;3.80;;;3.20;;
15297;SDS011;7750;48.796;9.026;2023-05-07T19:16:23;9.03;;;4.50;;
15297;SDS011;7750;48.796;9.026;2023-05-07T19:21:24;4.07;;;3.30;;
15297;SDS011;7750;48.796;9.026;2023-05-07T19:26:24;4.00;;;3.47;;
15297;SDS011;7750;48.796;9.026;2023-05-07T19:31:26;4.90;;;3.60;;
15297;SDS011;7750;48.796;9.026;2023-05-07T19:36:26;6.20;;;3.57;;
15297;SDS011;7750;48.796;9.026;2023-05-07T19:41:27;4.00;;;3.53;;
15297;SDS011;7750;48.796;9.026;2023-05-07T19:46:28;4.97;;;3.43;;
15297;SDS011;7750;48.796;9.026;2023-05-07T19:51:29;4.07;;;3.63;;
15297;SDS011;7750;48.796;9.026;2023-05-07T19:56:31;5.40;;;3.40;;
15297;SDS011;7750;48.796;9.026;2023-05-07T20:01:32;4.87;;;3.30;;
15297;SDS011;7750;48.796;9.026;2023-05-07T20:06:33;5.37;;;3.83;;
15297;SDS011;7750;48.796;9.026;2023-05-07T20:11:34;9.30;;;3.90;;
15297;SDS011;7750;48.796;9.026;2023-05-07T20:16:35;7.97;;;4.37;;
15297;SDS011;7750;48.796;9.026;2023-05-07T20:21:35;5.87;;;3.70;;
15297;SDS011;7750;48.796;9.026;2023-05-07T20:26:36;4.30;;;3.90;;
15297;SDS011;7750;48.796;9.026;2023-05-07T20:31:37;5.47;;;4.03;;
15297;SDS011;7750;48.796;9.026;2023-05-07T20:36:38;4.47;;;3.80;;
15297;SDS011;7750;48.796;9.026;2023-05-07T20:41:39;6.67;;;4.90;;
15297;SDS011;7750;48.796;9.026;2023-05-07T20:46:39;6.67;;;4.40;;
15297;SDS011;7750;48.796;9.026;2023-05-07T20:51:40;5.03;;;4.17;;
15297;SDS011;7750;48.796;9.026;2023-05-07T20:56:41;4.27;;;3.63;;
15297;SDS011;7750;48.796;9.026;2023-05-07T21:01:41;6.30;;;4.13;;
15297;SDS011;7750;48.796;9.026;2023-05-07T21:06:42;5.10;;;3.70;;
15297;SDS011;7750;48.796;9.026;2023-05-07T21:11:43;4.17;;;3.77;;
15297;SDS011;7750;48.796;9.026;2023-05-07T21:16:44;4.43;;;3.57;;
15297;SDS011;7750;48.796;9.026;2023-05-07T21:21:45;4.97;;;4.00;;
15297;SDS011;7750;48.796;9.026;2023-05-07T21:26:46;3.50;;;2.90;;
15297;SDS011;7750;48.796;9.026;2023-05-07T21:31:47;3.37;;;3.07;;
15297;SDS011;7750;48.796;9.026;2023-05-07T21:36:47;5.70;;;3.17;;
15297;SDS011;7750;48.796;9.026;2023-05-07T21:41:48;5.70;;;4.00;;
15297;SDS011;7750;48.796;9.026;2023-05-07T21:46:49;6.13;;;4.30;;
15297;SDS011;7750;48.796;9.026;2023-05-07T21:51:50;6.77;;;4.20;;
15297;SDS011;7750;48.796;9.026;2023-05-07T21:56:50;5.23;;;4.73;;
15297;SDS011;7750;48.796;9.026;2023-05-07T22:01:51;6.33;;;5.00;;
15297;SDS011;7750;48.796;9.026;2023-05-07T22:06:51;4.63;;;4.10;;
15297;SDS011;7750;48.796;9.026;2023-05-07T22:11:52;5.93;;;4.07;;
15297;SDS011;7750;48.796;9.026;2023-05-07T22:16:54;4.47;;;4.03;;
15297;SDS011;7750;48.796;9.026;2023-05-07T22:21:54;4.03;;;3.70;;
15297;SDS011;7750;48.796;9.026;2023-05-07T22:26:55;4.80;;;3.83;;
15297;SDS011;7750;48.796;9.026;2023-05-07T22:31:55;6.33;;;4.50;;
15297;SDS011;7750;48.796;9.026;2023-05-07T22:36:56;6.87;;;4.43;;
15297;SDS011;7750;48.796;9.026;2023-05-07T22:41:57;4.67;;;4.27;;
15297;SDS011;7750;48.796;9.026;2023-05-07T22:46:57;5.77;;;4.20;;
15297;SDS011;7750;48.796;9.026;2023-05-07T22:51:58;4.50;;;4.00;;
15297;SDS011;7750;48.796;9.026;2023-05-07T22:56:59;7.23;;;4.40;;
15297;SDS011;7750;48.796;9.026;2023-05-07T23:02:00;5.30;;;4.17;;
15297;SDS011;7750;48.796;9.026;2023-05-07T23:07:03;5.00;;;4.43;;
15297;SDS011;7750;48.796;9.026;2023-05-07T23:12:04;9.63;;;4.67;;
15297;SDS011;7750;48.796;9.026;2023-05-07T23:17:04;5.50;;;4.40;;
15297;SDS011;7750;48.796;9.026;2023-05-07T23:22:05;4.40;;;3.70;;
15297;SDS011;7750;48.796;9.026;2023-05-07T23:27:06;7.10;;;4.27;;
15297;SDS011;7750;48.796;9.026;2023-05-07T23:32:07;5.07;;;4.40;;
15297;SDS011;7750;48.796;9.026;2023-05-07T23:37:08;5.43;;;4.17;;
15297;SDS011;7750;48.796;9.026;2023-05-07T23:42:09;9.70;;;5.13;;
15297;SDS011;7750;48.796;9.026;2023-05-07T23:47:09;4.90;;;3.87;;
15297;SDS011;7750;48.796;9.026;2023-05-07T23:52:10;6.70;;;4.33;;
15297;SDS011;7750;48.796;9.026;2023-05-07T23:57:11;5.90;;;5.30;;
